createdAt,value
2023-03-01T00:00:33.706Z,0.28
2023-03-01T00:01:33.648Z,0.30
2023-03-01T00:02:33.715Z,0.28
2023-03-01T00:03:33.718Z,0.28
2023-03-01T00:04:33.714Z,0.30
2023-03-01T00:05:33.634Z,0.31
2023-03-01T00:06:33.827Z,0.31
2023-03-01T00:07:33.613Z,0.31
2023-03-01T00:08:33.623Z,0.33
2023-03-01T00:09:33.599Z,0.31
2023-03-01T00:10:33.591Z,0.30
2023-03-01T00:11:33.570Z,0.30
2023-03-01T00:12:33.543Z,0.30
2023-03-01T00:13:33.582Z,0.28
2023-03-01T00:14:33.581Z,0.26
2023-03-01T00:15:33.504Z,0.25
2023-03-01T00:16:33.885Z,0.25
2023-03-01T00:17:33.501Z,0.22
2023-03-01T00:18:33.494Z,0.19
2023-03-01T00:19:33.537Z,0.17
2023-03-01T00:20:33.446Z,0.13
2023-03-01T00:21:33.424Z,0.13
2023-03-01T00:22:33.474Z,0.13
2023-03-01T00:23:33.387Z,0.10
2023-03-01T00:24:33.420Z,0.07
2023-03-01T00:25:33.451Z,0.08
2023-03-01T00:26:33.555Z,0.07
2023-03-01T00:27:33.371Z,0.07
2023-03-01T00:28:33.369Z,0.05
2023-03-01T00:29:33.346Z,0.05
2023-03-01T00:30:33.369Z,0.04
2023-03-01T00:31:33.308Z,0.02
2023-03-01T00:32:33.284Z,-0.01
2023-03-01T00:33:33.291Z,0.01
2023-03-01T00:34:33.269Z,-0.02
2023-03-01T00:35:33.311Z,-0.03
2023-03-01T00:36:33.640Z,-0.05
2023-03-01T00:37:33.215Z,-0.05
2023-03-01T00:38:33.227Z,-0.03
2023-03-01T00:39:33.227Z,-0.05
2023-03-01T00:40:33.233Z,-0.05
2023-03-01T00:41:33.183Z,-0.03
2023-03-01T00:42:33.178Z,-0.06
2023-03-01T00:43:33.153Z,-0.08
2023-03-01T00:44:33.168Z,-0.06
2023-03-01T00:45:33.173Z,-0.13
2023-03-01T00:46:33.562Z,-0.13
2023-03-01T00:47:33.101Z,-0.13
2023-03-01T00:48:33.080Z,-0.14
2023-03-01T00:49:33.112Z,-0.14
2023-03-01T00:50:33.101Z,-0.14
2023-03-01T00:51:33.135Z,-0.17
2023-03-01T00:52:33.037Z,-0.17
2023-03-01T00:53:33.032Z,-0.20
2023-03-01T00:54:33.004Z,-0.20
2023-03-01T00:55:33.066Z,-0.19
2023-03-01T00:56:33.517Z,-0.19
2023-03-01T00:57:33.017Z,-0.21
2023-03-01T00:58:32.984Z,-0.21
2023-03-01T00:59:32.965Z,-0.21
2023-03-01T01:00:32.939Z,-0.21
2023-03-01T01:01:33.006Z,-0.20
2023-03-01T01:02:32.942Z,-0.21
2023-03-01T01:03:32.898Z,-0.21
2023-03-01T01:04:32.888Z,-0.23
2023-03-01T01:05:32.916Z,-0.26
2023-03-01T01:06:33.306Z,-0.26
2023-03-01T01:07:32.898Z,-0.27
2023-03-01T01:08:32.864Z,-0.30
2023-03-01T01:09:32.827Z,-0.30
2023-03-01T01:10:32.851Z,-0.30
2023-03-01T01:11:32.795Z,-0.32
2023-03-01T01:12:32.821Z,-0.32
2023-03-01T01:13:32.811Z,-0.32
2023-03-01T01:14:32.780Z,-0.32
2023-03-01T01:15:32.805Z,-0.32
2023-03-01T01:16:33.281Z,-0.34
2023-03-01T01:17:32.761Z,-0.37
2023-03-01T01:18:32.779Z,-0.35
2023-03-01T01:19:32.694Z,-0.37
2023-03-01T01:20:32.673Z,-0.32
2023-03-01T01:21:32.730Z,-0.32
2023-03-01T01:22:32.645Z,-0.31
2023-03-01T01:23:32.650Z,-0.30
2023-03-01T01:24:32.677Z,-0.30
2023-03-01T01:25:32.632Z,-0.30
2023-03-01T01:26:33.161Z,-0.31
2023-03-01T01:27:32.650Z,-0.32
2023-03-01T01:28:32.610Z,-0.31
2023-03-01T01:29:32.627Z,-0.31
2023-03-01T01:30:32.577Z,-0.30
2023-03-01T01:31:32.794Z,-0.30
2023-03-01T01:32:32.574Z,-0.30
2023-03-01T01:33:32.550Z,-0.30
2023-03-01T01:34:32.539Z,-0.27
2023-03-01T01:35:32.559Z,-0.31
2023-03-01T01:36:32.910Z,-0.31
2023-03-01T01:37:32.493Z,-0.34
2023-03-01T01:38:32.482Z,-0.35
2023-03-01T01:39:32.465Z,-0.38
2023-03-01T01:40:32.436Z,-0.39
2023-03-01T01:41:32.488Z,-0.42
2023-03-01T01:42:32.414Z,-0.44
2023-03-01T01:43:32.451Z,-0.44
2023-03-01T01:44:32.411Z,-0.45
2023-03-01T01:45:32.417Z,-0.47
2023-03-01T01:46:32.938Z,-0.49
2023-03-01T01:47:32.380Z,-0.47
2023-03-01T01:48:32.332Z,-0.52
2023-03-01T01:49:32.360Z,-0.50
2023-03-01T01:50:32.304Z,-0.52
2023-03-01T01:51:32.350Z,-0.55
2023-03-01T01:52:32.317Z,-0.55
2023-03-01T01:53:32.308Z,-0.53
2023-03-01T01:54:32.300Z,-0.55
2023-03-01T01:55:32.278Z,-0.56
2023-03-01T01:56:32.585Z,-0.56
2023-03-01T01:57:32.241Z,-0.56
2023-03-01T01:58:32.200Z,-0.58
2023-03-01T01:59:32.226Z,-0.59
2023-03-01T02:00:32.190Z,-0.56
2023-03-01T02:01:32.215Z,-0.59
2023-03-01T02:02:32.319Z,-0.62
2023-03-01T02:03:32.272Z,-0.63
2023-03-01T02:04:32.126Z,-0.63
2023-03-01T02:05:32.135Z,-0.65
2023-03-01T02:06:32.631Z,-0.67
2023-03-01T02:07:32.135Z,-0.67
2023-03-01T02:08:32.104Z,-0.68
2023-03-01T02:09:32.075Z,-0.68
2023-03-01T02:10:32.073Z,-0.67
2023-03-01T02:11:32.058Z,-0.67
2023-03-01T02:12:32.065Z,-0.67
2023-03-01T02:13:32.054Z,-0.68
2023-03-01T02:14:32.036Z,-0.68
2023-03-01T02:15:32.033Z,-0.68
2023-03-01T02:16:32.601Z,-0.68
2023-03-01T02:17:31.972Z,-0.68
2023-03-01T02:18:31.936Z,-0.68
2023-03-01T02:19:31.959Z,-0.71
2023-03-01T02:20:31.917Z,-0.73
2023-03-01T02:21:31.958Z,-0.73
2023-03-01T02:22:31.947Z,-0.74
2023-03-01T02:23:31.931Z,-0.74
2023-03-01T02:24:31.921Z,-0.74
2023-03-01T02:25:31.931Z,-0.76
2023-03-01T02:26:32.410Z,-0.76
2023-03-01T02:27:31.919Z,-0.74
2023-03-01T02:28:31.853Z,-0.74
2023-03-01T02:29:31.824Z,-0.71
2023-03-01T02:30:31.833Z,-0.71
2023-03-01T02:31:31.837Z,-0.71
2023-03-01T02:32:31.819Z,-0.68
2023-03-01T02:33:31.782Z,-0.71
2023-03-01T02:34:31.783Z,-0.74
2023-03-01T02:35:31.778Z,-0.74
2023-03-01T02:36:32.314Z,-0.74
2023-03-01T02:37:31.801Z,-0.76
2023-03-01T02:38:31.738Z,-0.74
2023-03-01T02:39:31.727Z,-0.76
2023-03-01T02:40:31.713Z,-0.76
2023-03-01T02:41:31.708Z,-0.77
2023-03-01T02:42:31.687Z,-0.80
2023-03-01T02:43:31.663Z,-0.81
2023-03-01T02:44:31.665Z,-0.80
2023-03-01T02:45:31.668Z,-0.85
2023-03-01T02:46:32.045Z,-0.85
2023-03-01T02:47:31.620Z,-0.86
2023-03-01T02:48:31.627Z,-0.89
2023-03-01T02:49:31.621Z,-0.89
2023-03-01T02:50:31.565Z,-0.90
2023-03-01T02:51:31.548Z,-0.90
2023-03-01T02:52:31.564Z,-0.92
2023-03-01T02:53:31.565Z,-0.90
2023-03-01T02:54:31.534Z,-0.92
2023-03-01T02:55:31.509Z,-0.93
2023-03-01T02:56:31.868Z,-0.93
2023-03-01T02:57:31.527Z,-0.95
2023-03-01T02:58:31.485Z,-0.96
2023-03-01T02:59:31.445Z,-0.97
2023-03-01T03:00:31.536Z,-0.97
2023-03-01T03:01:31.425Z,-0.99
2023-03-01T03:02:31.460Z,-0.97
2023-03-01T03:03:31.440Z,-1.00
2023-03-01T03:04:31.451Z,-1.00
2023-03-01T03:05:31.430Z,-0.99
2023-03-01T03:06:31.842Z,-0.99
2023-03-01T03:07:31.387Z,-1.00
2023-03-01T03:08:31.382Z,-0.97
2023-03-01T03:09:31.350Z,-0.97
2023-03-01T03:10:31.358Z,-0.97
2023-03-01T03:11:31.304Z,-0.97
2023-03-01T03:12:31.328Z,-0.99
2023-03-01T03:13:31.311Z,-0.97
2023-03-01T03:14:31.280Z,-0.97
2023-03-01T03:15:31.283Z,-1.00
2023-03-01T03:16:31.601Z,-1.00
2023-03-01T03:17:31.273Z,-1.03
2023-03-01T03:18:31.280Z,-1.05
2023-03-01T03:19:31.225Z,-1.07
2023-03-01T03:20:31.192Z,-1.07
2023-03-01T03:21:31.218Z,-1.07
2023-03-01T03:22:31.207Z,-1.05
2023-03-01T03:23:31.156Z,-1.02
2023-03-01T03:24:31.168Z,-1.02
2023-03-01T03:25:31.139Z,-1.02
2023-03-01T03:26:31.464Z,-0.99
2023-03-01T03:27:31.149Z,-0.99
2023-03-01T03:28:31.102Z,-1.02
2023-03-01T03:29:31.077Z,-1.02
2023-03-01T03:30:31.057Z,-1.02
2023-03-01T03:31:31.153Z,-1.03
2023-03-01T03:32:31.114Z,-1.03
2023-03-01T03:33:31.032Z,-1.05
2023-03-01T03:34:31.051Z,-1.07
2023-03-01T03:35:31.257Z,-1.07
2023-03-01T03:36:31.156Z,-1.10
2023-03-01T03:37:31.024Z,-1.10
2023-03-01T03:38:30.980Z,-1.11
2023-03-01T03:39:30.956Z,-1.14
2023-03-01T03:40:30.934Z,-1.14
2023-03-01T03:41:30.949Z,-1.14
2023-03-01T03:42:30.940Z,-1.15
2023-03-01T03:43:30.922Z,-1.17
2023-03-01T03:44:30.890Z,-1.18
2023-03-01T03:45:30.919Z,-1.18
2023-03-01T03:46:30.862Z,-1.20
2023-03-01T03:47:30.860Z,-1.20
2023-03-01T03:48:30.830Z,-1.17
2023-03-01T03:49:30.872Z,-1.23
2023-03-01T03:50:30.834Z,-1.20
2023-03-01T03:51:30.801Z,-1.23
2023-03-01T03:52:30.847Z,-1.26
2023-03-01T03:53:30.782Z,-1.26
2023-03-01T03:54:30.787Z,-1.28
2023-03-01T03:55:30.789Z,-1.26
2023-03-01T03:56:31.023Z,-1.25
2023-03-01T03:57:30.793Z,-1.28
2023-03-01T03:58:30.697Z,-1.28
2023-03-01T03:59:30.738Z,-1.28
2023-03-01T04:00:30.688Z,-1.28
2023-03-01T04:01:30.703Z,-1.26
2023-03-01T04:02:30.705Z,-1.26
2023-03-01T04:03:30.661Z,-1.25
2023-03-01T04:04:30.659Z,-1.26
2023-03-01T04:05:30.659Z,-1.25
2023-03-01T04:06:30.911Z,-1.26
2023-03-01T04:07:30.670Z,-1.25
2023-03-01T04:08:30.609Z,-1.25
2023-03-01T04:09:30.604Z,-1.23
2023-03-01T04:10:30.573Z,-1.23
2023-03-01T04:11:30.603Z,-1.23
2023-03-01T04:12:30.573Z,-1.25
2023-03-01T04:13:30.528Z,-1.25
2023-03-01T04:14:30.529Z,-1.23
2023-03-01T04:15:30.541Z,-1.25
2023-03-01T04:16:31.060Z,-1.23
2023-03-01T04:17:30.520Z,-1.23
2023-03-01T04:18:30.461Z,-1.28
2023-03-01T04:19:30.482Z,-1.28
2023-03-01T04:20:30.431Z,-1.28
2023-03-01T04:21:30.461Z,-1.26
2023-03-01T04:22:30.421Z,-1.26
2023-03-01T04:23:30.438Z,-1.26
2023-03-01T04:24:30.382Z,-1.28
2023-03-01T04:25:30.375Z,-1.29
2023-03-01T04:26:30.581Z,-1.32
2023-03-01T04:27:30.391Z,-1.32
2023-03-01T04:28:30.333Z,-1.33
2023-03-01T04:29:30.335Z,-1.35
2023-03-01T04:30:30.301Z,-1.36
2023-03-01T04:31:30.392Z,-1.35
2023-03-01T04:32:30.336Z,-1.35
2023-03-01T04:33:30.296Z,-1.36
2023-03-01T04:34:30.262Z,-1.35
2023-03-01T04:35:30.392Z,-1.35
2023-03-01T04:36:31.032Z,-1.35
2023-03-01T04:37:30.237Z,-1.35
2023-03-01T04:38:30.208Z,-1.33
2023-03-01T04:39:30.210Z,-1.36
2023-03-01T04:40:30.206Z,-1.35
2023-03-01T04:41:30.215Z,-1.36
2023-03-01T04:42:30.158Z,-1.38
2023-03-01T04:43:30.154Z,-1.36
2023-03-01T04:44:30.116Z,-1.39
2023-03-01T04:45:30.165Z,-1.43
2023-03-01T04:46:30.755Z,-1.46
2023-03-01T04:47:30.106Z,-1.44
2023-03-01T04:48:30.086Z,-1.44
2023-03-01T04:49:30.090Z,-1.46
2023-03-01T04:50:30.088Z,-1.47
2023-03-01T04:51:30.089Z,-1.44
2023-03-01T04:52:30.025Z,-1.47
2023-03-01T04:53:30.044Z,-1.50
2023-03-01T04:54:30.043Z,-1.50
2023-03-01T04:55:30.032Z,-1.50
2023-03-01T04:56:30.374Z,-1.50
2023-03-01T04:57:29.997Z,-1.50
2023-03-01T04:58:30.035Z,-1.51
2023-03-01T04:59:29.989Z,-1.50
2023-03-01T05:00:29.934Z,-1.53
2023-03-01T05:01:29.945Z,-1.53
2023-03-01T05:02:29.969Z,-1.53
2023-03-01T05:03:29.927Z,-1.51
2023-03-01T05:04:29.945Z,-1.51
2023-03-01T05:05:29.869Z,-1.50
2023-03-01T05:06:30.215Z,-1.50
2023-03-01T05:07:29.865Z,-1.49
2023-03-01T05:08:29.862Z,-1.49
2023-03-01T05:09:29.858Z,-1.50
2023-03-01T05:10:29.844Z,-1.51
2023-03-01T05:11:29.817Z,-1.51
2023-03-01T05:12:29.824Z,-1.50
2023-03-01T05:13:29.788Z,-1.49
2023-03-01T05:14:29.805Z,-1.50
2023-03-01T05:15:29.967Z,-1.50
2023-03-01T05:16:30.112Z,-1.50
2023-03-01T05:17:29.717Z,-1.54
2023-03-01T05:18:29.730Z,-1.53
2023-03-01T05:19:29.696Z,-1.54
2023-03-01T05:20:29.768Z,-1.56
2023-03-01T05:21:29.667Z,-1.57
2023-03-01T05:22:29.690Z,-1.57
2023-03-01T05:23:29.667Z,-1.59
2023-03-01T05:24:29.648Z,-1.57
2023-03-01T05:25:29.630Z,-1.59
2023-03-01T05:26:29.606Z,-1.56
2023-03-01T05:27:29.595Z,-1.54
2023-03-01T05:28:29.594Z,-1.53
2023-03-01T05:29:29.583Z,-1.57
2023-03-01T05:30:29.581Z,-1.59
2023-03-01T05:31:29.678Z,-1.59
2023-03-01T05:32:29.569Z,-1.57
2023-03-01T05:33:29.544Z,-1.59
2023-03-01T05:34:29.552Z,-1.62
2023-03-01T05:35:29.562Z,-1.61
2023-03-01T05:36:30.041Z,-1.61
2023-03-01T05:37:29.470Z,-1.62
2023-03-01T05:38:29.514Z,-1.62
2023-03-01T05:39:29.447Z,-1.62
2023-03-01T05:40:29.462Z,-1.64
2023-03-01T05:41:29.451Z,-1.62
2023-03-01T05:42:29.440Z,-1.64
2023-03-01T05:43:29.446Z,-1.65
2023-03-01T05:44:29.423Z,-1.65
2023-03-01T05:45:29.394Z,-1.67
2023-03-01T05:46:29.688Z,-1.68
2023-03-01T05:47:29.377Z,-1.67
2023-03-01T05:48:29.407Z,-1.67
2023-03-01T05:49:29.324Z,-1.67
2023-03-01T05:50:29.365Z,-1.70
2023-03-01T05:51:29.328Z,-1.68
2023-03-01T05:52:29.288Z,-1.68
2023-03-01T05:53:29.316Z,-1.67
2023-03-01T05:54:29.290Z,-1.65
2023-03-01T05:55:29.308Z,-1.65
2023-03-01T05:56:29.632Z,-1.67
2023-03-01T05:57:29.208Z,-1.67
2023-03-01T05:58:29.257Z,-1.68
2023-03-01T05:59:29.238Z,-1.68
2023-03-01T06:00:29.191Z,-1.70
2023-03-01T06:01:29.171Z,-1.68
2023-03-01T06:02:29.174Z,-1.68
2023-03-01T06:03:29.195Z,-1.70
2023-03-01T06:04:29.210Z,-1.71
2023-03-01T06:05:29.187Z,-1.71
2023-03-01T06:06:29.436Z,-1.71
2023-03-01T06:07:29.105Z,-1.72
2023-03-01T06:08:29.136Z,-1.71
2023-03-01T06:09:29.101Z,-1.72
2023-03-01T06:10:29.080Z,-1.72
2023-03-01T06:11:29.053Z,-1.72
2023-03-01T06:12:29.073Z,-1.72
2023-03-01T06:13:29.077Z,-1.74
2023-03-01T06:14:29.029Z,-1.77
2023-03-01T06:15:29.064Z,-1.77
2023-03-01T06:16:29.519Z,-1.82
2023-03-01T06:17:29.017Z,-1.80
2023-03-01T06:18:29.009Z,-1.83
2023-03-01T06:19:28.956Z,-1.82
2023-03-01T06:20:29.104Z,-1.82
2023-03-01T06:21:28.948Z,-1.83
2023-03-01T06:22:28.931Z,-1.83
2023-03-01T06:23:28.941Z,-1.82
2023-03-01T06:24:28.923Z,-1.82
2023-03-01T06:25:28.871Z,-1.82
2023-03-01T06:26:29.254Z,-1.83
2023-03-01T06:27:28.876Z,-1.83
2023-03-01T06:28:28.898Z,-1.86
2023-03-01T06:29:28.841Z,-1.88
2023-03-01T06:30:28.823Z,-1.89
2023-03-01T06:31:28.892Z,-1.88
2023-03-01T06:32:28.802Z,-1.86
2023-03-01T06:33:28.828Z,-1.88
2023-03-01T06:34:28.806Z,-1.85
2023-03-01T06:35:28.768Z,-1.85
2023-03-01T06:36:29.131Z,-1.85
2023-03-01T06:37:28.720Z,-1.80
2023-03-01T06:38:28.721Z,-1.83
2023-03-01T06:39:28.721Z,-1.82
2023-03-01T06:40:28.696Z,-1.83
2023-03-01T06:41:28.697Z,-1.83
2023-03-01T06:42:28.691Z,-1.83
2023-03-01T06:43:28.643Z,-1.80
2023-03-01T06:44:28.744Z,-1.80
2023-03-01T06:45:28.681Z,-1.77
2023-03-01T06:46:28.995Z,-1.77
2023-03-01T06:47:28.620Z,-1.77
2023-03-01T06:48:28.625Z,-1.77
2023-03-01T06:49:28.616Z,-1.74
2023-03-01T06:50:28.673Z,-1.74
2023-03-01T06:51:28.575Z,-1.72
2023-03-01T06:52:28.577Z,-1.72
2023-03-01T06:53:28.518Z,-1.74
2023-03-01T06:54:28.554Z,-1.74
2023-03-01T06:55:28.537Z,-1.71
2023-03-01T06:56:28.819Z,-1.71
2023-03-01T06:57:28.491Z,-1.70
2023-03-01T06:58:28.498Z,-1.71
2023-03-01T06:59:28.506Z,-1.70
2023-03-01T07:00:28.480Z,-1.68
2023-03-01T07:01:28.441Z,-1.65
2023-03-01T07:02:28.449Z,-1.64
2023-03-01T07:03:28.418Z,-1.61
2023-03-01T07:04:28.442Z,-1.59
2023-03-01T07:05:28.417Z,-1.59
2023-03-01T07:06:28.630Z,-1.57
2023-03-01T07:07:28.376Z,-1.57
2023-03-01T07:08:28.373Z,-1.56
2023-03-01T07:09:28.328Z,-1.56
2023-03-01T07:10:28.364Z,-1.54
2023-03-01T07:11:28.294Z,-1.53
2023-03-01T07:12:28.337Z,-1.53
2023-03-01T07:13:28.296Z,-1.53
2023-03-01T07:14:28.264Z,-1.53
2023-03-01T07:15:28.256Z,-1.51
2023-03-01T07:16:28.370Z,-1.50
2023-03-01T07:17:28.242Z,-1.47
2023-03-01T07:18:28.252Z,-1.47
2023-03-01T07:19:28.200Z,-1.46
2023-03-01T07:20:28.230Z,-1.44
2023-03-01T07:21:28.221Z,-1.43
2023-03-01T07:22:28.201Z,-1.41
2023-03-01T07:23:28.152Z,-1.41
2023-03-01T07:24:28.143Z,-1.41
2023-03-01T07:25:28.148Z,-1.36
2023-03-01T07:26:28.562Z,-1.35
2023-03-01T07:27:28.118Z,-1.35
2023-03-01T07:28:28.103Z,-1.33
2023-03-01T07:29:28.083Z,-1.32
2023-03-01T07:30:28.215Z,-1.28
2023-03-01T07:31:28.069Z,-1.26
2023-03-01T07:32:28.178Z,-1.23
2023-03-01T07:33:28.045Z,-1.18
2023-03-01T07:34:28.046Z,-1.14
2023-03-01T07:35:28.129Z,-1.13
2023-03-01T07:36:28.147Z,-1.10
2023-03-01T07:37:27.998Z,-1.07
2023-03-01T07:38:27.979Z,-1.05
2023-03-01T07:39:27.977Z,-0.99
2023-03-01T07:40:27.984Z,-0.96
2023-03-01T07:41:27.920Z,-0.95
2023-03-01T07:42:27.970Z,-0.90
2023-03-01T07:43:27.894Z,-0.89
2023-03-01T07:44:27.893Z,-0.85
2023-03-01T07:45:27.911Z,-0.81
2023-03-01T07:46:27.928Z,-0.77
2023-03-01T07:47:27.924Z,-0.74
2023-03-01T07:48:27.916Z,-0.73
2023-03-01T07:49:27.852Z,-0.67
2023-03-01T07:50:27.917Z,-0.63
2023-03-01T07:51:27.838Z,-0.60
2023-03-01T07:52:27.830Z,-0.56
2023-03-01T07:53:27.822Z,-0.50
2023-03-01T07:54:27.794Z,-0.45
2023-03-01T07:55:27.808Z,-0.37
2023-03-01T07:56:27.782Z,-0.30
2023-03-01T07:57:27.737Z,-0.19
2023-03-01T07:58:27.765Z,-0.12
2023-03-01T07:59:27.704Z,-0.05
2023-03-01T08:00:27.824Z,0.02
2023-03-01T08:01:27.718Z,0.07
2023-03-01T08:02:27.673Z,0.10
2023-03-01T08:03:27.673Z,0.15
2023-03-01T08:04:27.661Z,0.19
2023-03-01T08:05:27.657Z,0.19
2023-03-01T08:06:27.659Z,0.22
2023-03-01T08:07:27.588Z,0.25
2023-03-01T08:08:27.630Z,0.26
2023-03-01T08:09:27.594Z,0.31
2023-03-01T08:10:27.571Z,0.31
2023-03-01T08:11:27.619Z,0.35
2023-03-01T08:12:27.586Z,0.37
2023-03-01T08:13:27.547Z,0.41
2023-03-01T08:14:27.515Z,0.44
2023-03-01T08:15:27.496Z,0.45
2023-03-01T08:16:27.569Z,0.52
2023-03-01T08:17:27.474Z,0.56
2023-03-01T08:18:27.768Z,0.57
2023-03-01T08:19:27.488Z,0.63
2023-03-01T08:20:27.442Z,0.68
2023-03-01T08:21:27.415Z,0.71
2023-03-01T08:22:27.419Z,0.72
2023-03-01T08:23:27.408Z,0.78
2023-03-01T08:24:27.448Z,0.81
2023-03-01T08:25:27.411Z,0.84
2023-03-01T08:26:27.362Z,0.86
2023-03-01T08:27:27.356Z,0.86
2023-03-01T08:28:27.378Z,0.92
2023-03-01T08:29:27.333Z,0.96
2023-03-01T08:30:27.361Z,1.00
2023-03-01T08:31:27.386Z,1.07
2023-03-01T08:32:27.344Z,1.10
2023-03-01T08:33:27.328Z,1.17
2023-03-01T08:34:27.299Z,1.20
2023-03-01T08:35:27.315Z,1.25
2023-03-01T08:36:27.307Z,1.29
2023-03-01T08:37:27.220Z,1.35
2023-03-01T08:38:27.241Z,1.36
2023-03-01T08:39:27.256Z,1.42
2023-03-01T08:40:27.226Z,1.44
2023-03-01T08:41:27.224Z,1.49
2023-03-01T08:42:27.187Z,1.52
2023-03-01T08:43:27.174Z,1.56
2023-03-01T08:44:27.172Z,1.60
2023-03-01T08:45:27.145Z,1.60
2023-03-01T08:46:27.117Z,1.63
2023-03-01T08:47:27.169Z,1.65
2023-03-01T08:48:27.114Z,1.70
2023-03-01T08:49:27.114Z,1.70
2023-03-01T08:50:27.094Z,1.72
2023-03-01T08:51:27.085Z,1.77
2023-03-01T08:52:27.092Z,1.83
2023-03-01T08:53:27.014Z,1.86
2023-03-01T08:54:27.052Z,1.93
2023-03-01T08:55:27.025Z,1.98
2023-03-01T08:56:27.002Z,2.07
2023-03-01T08:57:27.037Z,2.09
2023-03-01T08:58:27.004Z,2.18
2023-03-01T08:59:26.984Z,2.23
2023-03-01T09:00:26.945Z,2.30
2023-03-01T09:01:26.916Z,2.37
2023-03-01T09:02:27.033Z,2.40
2023-03-01T09:03:26.916Z,2.50
2023-03-01T09:04:26.930Z,2.58
2023-03-01T09:05:26.904Z,2.63
2023-03-01T09:06:26.881Z,2.71
2023-03-01T09:07:26.852Z,2.79
2023-03-01T09:08:26.997Z,2.80
2023-03-01T09:09:26.841Z,2.87
2023-03-01T09:10:26.852Z,2.90
2023-03-01T09:11:26.818Z,2.95
2023-03-01T09:12:26.823Z,2.95
2023-03-01T09:13:26.850Z,2.98
2023-03-01T09:14:26.810Z,3.01
2023-03-01T09:15:26.762Z,3.04
2023-03-01T09:16:26.763Z,3.07
2023-03-01T09:17:26.752Z,3.10
2023-03-01T09:18:26.743Z,3.10
2023-03-01T09:19:27.501Z,3.10
2023-03-01T09:20:26.726Z,3.12
2023-03-01T09:21:39.716Z,3.13
2023-03-01T09:22:27.712Z,3.16
2023-03-01T09:23:26.694Z,3.20
2023-03-01T09:24:27.411Z,3.20
2023-03-01T09:25:26.673Z,3.23
2023-03-01T09:26:26.613Z,3.25
2023-03-01T09:27:26.603Z,3.26
2023-03-01T09:28:29.969Z,3.31
2023-03-01T09:29:26.577Z,3.35
2023-03-01T09:30:27.291Z,3.37
2023-03-01T09:31:26.892Z,3.42
2023-03-01T09:32:26.624Z,3.46
2023-03-01T09:33:26.549Z,3.44
2023-03-01T09:34:26.547Z,3.46
2023-03-01T09:35:26.512Z,3.49
2023-03-01T09:36:26.580Z,3.46
2023-03-01T09:37:26.503Z,3.49
2023-03-01T09:38:27.061Z,3.53
2023-03-01T09:39:26.455Z,3.56
2023-03-01T09:40:26.497Z,3.56
2023-03-01T09:41:26.468Z,3.57
2023-03-01T09:42:26.432Z,3.57
2023-03-01T09:43:26.446Z,3.60
2023-03-01T09:44:26.414Z,3.62
2023-03-01T09:45:26.422Z,3.67
2023-03-01T09:46:26.501Z,3.70
2023-03-01T09:47:26.403Z,3.71
2023-03-01T09:48:26.353Z,3.70
2023-03-01T09:49:26.335Z,3.70
2023-03-01T09:50:26.382Z,3.68
2023-03-01T09:51:26.304Z,3.68
2023-03-01T09:52:26.297Z,3.68
2023-03-01T09:53:26.293Z,3.70
2023-03-01T09:54:26.287Z,3.72
2023-03-01T09:55:26.294Z,3.72
2023-03-01T09:56:26.283Z,3.71
2023-03-01T09:57:26.340Z,3.72
2023-03-01T09:58:26.280Z,3.75
2023-03-01T09:59:26.703Z,3.78
2023-03-01T10:00:26.228Z,3.80
2023-03-01T10:01:27.207Z,3.80
2023-03-01T10:02:26.202Z,3.80
2023-03-01T10:03:26.282Z,3.81
2023-03-01T10:04:26.186Z,3.86
2023-03-01T10:05:26.151Z,3.89
2023-03-01T10:06:34.851Z,3.86
2023-03-01T10:07:27.147Z,3.84
2023-03-01T10:08:26.082Z,3.86
2023-03-01T10:09:26.104Z,3.89
2023-03-01T10:10:26.088Z,3.93
2023-03-01T10:11:26.131Z,3.93
2023-03-01T10:12:26.067Z,3.92
2023-03-01T10:13:26.241Z,3.95
2023-03-01T10:14:26.033Z,3.98
2023-03-01T10:15:26.034Z,4.00
2023-03-01T10:16:25.980Z,4.06
2023-03-01T10:17:26.063Z,4.10
2023-03-01T10:18:25.972Z,4.08
2023-03-01T10:19:26.016Z,4.10
2023-03-01T10:20:25.958Z,4.10
2023-03-01T10:21:25.940Z,4.11
2023-03-01T10:22:25.926Z,4.16
2023-03-01T10:23:25.900Z,4.17
2023-03-01T10:24:26.088Z,4.17
2023-03-01T10:25:25.928Z,4.18
2023-03-01T10:26:25.890Z,4.21
2023-03-01T10:27:25.954Z,4.13
2023-03-01T10:28:25.910Z,4.13
2023-03-01T10:29:25.945Z,4.17
2023-03-01T10:30:25.962Z,4.21
2023-03-01T10:31:25.850Z,4.21
2023-03-01T10:32:25.893Z,4.24
2023-03-01T10:33:25.776Z,4.26
2023-03-01T10:34:25.781Z,4.34
2023-03-01T10:35:25.817Z,4.35
2023-03-01T10:36:25.764Z,4.36
2023-03-01T10:37:25.740Z,4.35
2023-03-01T10:38:25.739Z,4.36
2023-03-01T10:39:25.728Z,4.36
2023-03-01T10:40:25.693Z,4.39
2023-03-01T10:41:25.799Z,4.42
2023-03-01T10:42:25.683Z,4.42
2023-03-01T10:43:25.679Z,4.44
2023-03-01T10:44:25.684Z,4.50
2023-03-01T10:45:26.956Z,4.51
2023-03-01T10:46:25.641Z,4.51
2023-03-01T10:47:25.683Z,4.49
2023-03-01T10:48:25.606Z,4.50
2023-03-01T10:49:25.601Z,4.49
2023-03-01T10:50:25.567Z,4.51
2023-03-01T10:51:25.610Z,4.53
2023-03-01T10:52:25.561Z,4.53
2023-03-01T10:53:25.542Z,4.57
2023-03-01T10:54:25.546Z,4.56
2023-03-01T10:55:25.536Z,4.56
2023-03-01T10:56:25.471Z,4.54
2023-03-01T10:57:25.470Z,4.51
2023-03-01T10:58:25.458Z,4.51
2023-03-01T10:59:25.479Z,4.59
2023-03-01T11:00:25.421Z,4.62
2023-03-01T11:01:25.550Z,4.64
2023-03-01T11:02:26.184Z,4.68
2023-03-01T11:03:25.391Z,4.67
2023-03-01T11:04:25.447Z,4.65
2023-03-01T11:05:25.403Z,4.64
2023-03-01T11:06:25.356Z,4.67
2023-03-01T11:07:25.369Z,4.67
2023-03-01T11:09:18.009Z,4.68
2023-03-01T11:10:17.972Z,4.67
2023-03-01T11:11:18.018Z,4.72
2023-03-01T11:12:18.010Z,4.72
2023-03-01T11:13:17.977Z,4.74
2023-03-01T11:14:26.328Z,4.74
2023-03-01T11:15:18.950Z,4.77
2023-03-01T11:16:17.999Z,4.79
2023-03-01T11:17:17.899Z,4.77
2023-03-01T11:18:17.866Z,4.77
2023-03-01T11:19:17.898Z,4.77
2023-03-01T11:20:17.877Z,4.80
2023-03-01T11:21:17.942Z,4.84
2023-03-01T11:22:17.895Z,4.86
2023-03-01T11:23:17.902Z,4.87
2023-03-01T11:24:17.839Z,4.86
2023-03-01T11:25:17.790Z,4.87
2023-03-01T11:26:17.777Z,4.87
2023-03-01T11:27:17.806Z,4.90
2023-03-01T11:28:17.747Z,4.88
2023-03-01T11:29:17.775Z,4.88
2023-03-01T11:30:17.730Z,4.94
2023-03-01T11:31:17.832Z,4.96
2023-03-01T11:32:17.843Z,5.01
2023-03-01T11:33:17.701Z,5.04
2023-03-01T11:34:17.700Z,5.02
2023-03-01T11:35:17.689Z,5.06
2023-03-01T11:36:17.795Z,5.09
2023-03-01T11:37:17.656Z,5.11
2023-03-01T11:38:17.618Z,5.12
2023-03-01T11:39:17.646Z,5.14
2023-03-01T11:40:17.626Z,5.17
2023-03-01T11:41:17.617Z,5.19
2023-03-01T11:42:19.283Z,5.19
2023-03-01T11:43:17.596Z,5.20
2023-03-01T11:44:17.547Z,5.09
2023-03-01T11:45:17.553Z,5.04
2023-03-01T11:46:17.588Z,5.06
2023-03-01T11:47:17.580Z,5.12
2023-03-01T11:48:17.485Z,5.19
2023-03-01T11:49:17.475Z,5.27
2023-03-01T11:50:17.528Z,5.35
2023-03-01T11:51:17.462Z,5.37
2023-03-01T11:52:17.488Z,5.41
2023-03-01T11:53:17.407Z,5.41
2023-03-01T11:54:17.449Z,5.35
2023-03-01T11:55:17.384Z,5.30
2023-03-01T11:56:17.390Z,5.30
2023-03-01T11:57:17.386Z,5.29
2023-03-01T11:58:17.357Z,5.27
2023-03-01T11:59:17.371Z,5.27
2023-03-01T12:00:17.358Z,5.29
2023-03-01T12:01:17.355Z,5.33
2023-03-01T12:02:17.401Z,5.38
2023-03-01T12:03:17.288Z,5.40
2023-03-01T12:04:17.380Z,5.44
2023-03-01T12:05:17.298Z,5.47
2023-03-01T12:06:17.292Z,5.44
2023-03-01T12:07:17.269Z,5.42
2023-03-01T12:08:17.281Z,5.42
2023-03-01T12:09:17.236Z,5.40
2023-03-01T12:10:17.266Z,5.38
2023-03-01T12:11:17.212Z,5.40
2023-03-01T12:12:17.195Z,5.41
2023-03-01T12:13:17.227Z,5.42
2023-03-01T12:14:17.160Z,5.42
2023-03-01T12:15:17.122Z,5.41
2023-03-01T12:16:25.932Z,5.42
2023-03-01T12:17:18.188Z,5.47
2023-03-01T12:18:17.147Z,5.49
2023-03-01T12:19:17.084Z,5.52
2023-03-01T12:20:17.132Z,5.55
2023-03-01T12:21:17.096Z,5.56
2023-03-01T12:22:17.120Z,5.55
2023-03-01T12:23:20.640Z,5.56
2023-03-01T12:24:17.032Z,5.63
2023-03-01T12:25:17.038Z,5.66
2023-03-01T12:26:17.003Z,5.70
2023-03-01T12:27:16.997Z,5.67
2023-03-01T12:28:16.996Z,5.70
2023-03-01T12:29:16.951Z,5.73
2023-03-01T12:30:16.994Z,5.73
2023-03-01T12:31:17.014Z,5.78
2023-03-01T12:32:17.061Z,5.80
2023-03-01T12:33:16.915Z,5.92
2023-03-01T12:34:16.927Z,5.96
2023-03-01T12:35:16.905Z,5.98
2023-03-01T12:36:16.925Z,5.98
2023-03-01T12:37:16.849Z,5.98
2023-03-01T12:38:16.883Z,5.95
2023-03-01T12:39:18.068Z,5.95
2023-03-01T12:40:16.846Z,5.93
2023-03-01T12:41:16.817Z,5.98
2023-03-01T12:42:16.799Z,5.99
2023-03-01T12:43:16.778Z,5.98
2023-03-01T12:44:16.775Z,5.96
2023-03-01T12:45:16.768Z,5.92
2023-03-01T12:46:16.856Z,5.95
2023-03-01T12:47:16.742Z,5.99
2023-03-01T12:48:16.750Z,6.01
2023-03-01T12:49:16.844Z,5.99
2023-03-01T12:50:16.722Z,6.01
2023-03-01T12:51:16.691Z,6.03
2023-03-01T12:52:16.706Z,6.08
2023-03-01T12:53:16.680Z,6.16
2023-03-01T12:54:16.660Z,6.19
2023-03-01T12:55:16.633Z,6.20
2023-03-01T12:56:16.643Z,6.20
2023-03-01T12:57:16.669Z,6.27
2023-03-01T12:58:16.618Z,6.32
2023-03-01T12:59:16.620Z,6.33
2023-03-01T13:00:16.581Z,6.33
2023-03-01T13:01:16.673Z,6.33
2023-03-01T13:02:16.603Z,6.33
2023-03-01T13:03:16.536Z,6.35
2023-03-01T13:04:16.640Z,6.35